sensor_id;sensor_type;location;lat;lon;timestamp;pressure;altitude;pressure_sealevel;temperature;humidity
64908;BME280;64365;-1.756;110.040;2023-02-28T00:01:13;103155.84;;;6.25;74.79
64908;BME280;64365;-1.756;110.040;2023-02-28T00:03:41;103146.84;;;6.26;77.23
64908;BME280;64365;-1.756;110.040;2023-02-28T00:06:08;103159.16;;;6.41;75.89
64908;BME280;64365;-1.756;110.040;2023-02-28T00:08:37;103155.22;;;6.38;73.69
64908;BME280;64365;-1.756;110.040;2023-02-28T00:11:06;103149.72;;;6.35;73.21
64908;BME280;64365;-1.756;110.040;2023-02-28T00:13:34;103162.59;;;6.42;73.56
64908;BME280;64365;-1.756;110.040;2023-02-28T00:16:02;103168.66;;;6.42;74.53
64908;BME280;64365;-1.756;110.040;2023-02-28T00:18:29;103149.16;;;6.38;74.52
64908;BME280;64365;-1.756;110.040;2023-02-28T00:20:56;103155.38;;;6.52;74.63
64908;BME280;64365;-1.756;110.040;2023-02-28T00:23:23;103158.53;;;6.54;72.14
64908;BME280;64365;-1.756;110.040;2023-02-28T00:25:51;103160.66;;;6.52;71.14
64908;BME280;64365;-1.756;110.040;2023-02-28T00:28:18;103152.25;;;6.45;70.65
64908;BME280;64365;-1.756;110.040;2023-02-28T00:30:44;103158.84;;;6.48;69.51
64908;BME280;64365;-1.756;110.040;2023-02-28T00:33:11;103157.81;;;6.44;68.72
64908;BME280;64365;-1.756;110.040;2023-02-28T00:35:38;103156.50;;;6.41;68.42
64908;BME280;64365;-1.756;110.040;2023-02-28T00:38:05;103162.88;;;6.40;68.51
64908;BME280;64365;-1.756;110.040;2023-02-28T00:40:31;103153.66;;;6.37;72.66
64908;BME280;64365;-1.756;110.040;2023-02-28T00:42:59;103152.25;;;6.45;72.65
64908;BME280;64365;-1.756;110.040;2023-02-28T00:45:26;103154.84;;;6.50;72.90
64908;BME280;64365;-1.756;110.040;2023-02-28T00:47:53;103144.28;;;6.50;71.25
64908;BME280;64365;-1.756;110.040;2023-02-28T00:50:20;103152.97;;;6.56;71.34
64908;BME280;64365;-1.756;110.040;2023-02-28T00:52:47;103150.59;;;6.54;72.64
64908;BME280;64365;-1.756;110.040;2023-02-28T00:55:14;103152.16;;;6.61;71.76
64908;BME280;64365;-1.756;110.040;2023-02-28T00:57:41;103152.34;;;6.64;72.60
64908;BME280;64365;-1.756;110.040;2023-02-28T01:00:10;103153.72;;;6.62;69.70
64908;BME280;64365;-1.756;110.040;2023-02-28T01:02:37;103146.38;;;6.53;69.04
64908;BME280;64365;-1.756;110.040;2023-02-28T01:05:04;103159.53;;;6.58;71.25
64908;BME280;64365;-1.756;110.040;2023-02-28T01:07:31;103156.63;;;6.60;73.38
64908;BME280;64365;-1.756;110.040;2023-02-28T01:09:58;103162.69;;;6.66;74.73
64908;BME280;64365;-1.756;110.040;2023-02-28T01:12:24;103165.53;;;6.69;72.93
64908;BME280;64365;-1.756;110.040;2023-02-28T01:14:51;103157.09;;;6.67;72.51
64908;BME280;64365;-1.756;110.040;2023-02-28T01:17:19;103159.50;;;6.64;72.27
64908;BME280;64365;-1.756;110.040;2023-02-28T01:19:45;103166.94;;;6.62;71.79
64908;BME280;64365;-1.756;110.040;2023-02-28T01:22:12;103164.50;;;6.65;72.88
64908;BME280;64365;-1.756;110.040;2023-02-28T01:24:38;103160.81;;;6.66;73.07
64908;BME280;64365;-1.756;110.040;2023-02-28T01:27:05;103152.88;;;6.66;72.73
64908;BME280;64365;-1.756;110.040;2023-02-28T01:29:31;103139.94;;;6.65;71.25
64908;BME280;64365;-1.756;110.040;2023-02-28T01:31:58;103148.09;;;6.68;73.88
64908;BME280;64365;-1.756;110.040;2023-02-28T01:34:26;103150.97;;;6.72;73.29
64908;BME280;64365;-1.756;110.040;2023-02-28T01:36:53;103139.63;;;6.71;73.83
64908;BME280;64365;-1.756;110.040;2023-02-28T01:39:20;103140.22;;;6.63;71.51
64908;BME280;64365;-1.756;110.040;2023-02-28T01:41:46;103141.00;;;6.64;71.14
64908;BME280;64365;-1.756;110.040;2023-02-28T01:47:17;103138.41;;;6.58;73.69
64908;BME280;64365;-1.756;110.040;2023-02-28T01:49:45;103146.06;;;6.60;72.26
64908;BME280;64365;-1.756;110.040;2023-02-28T01:52:13;103140.50;;;6.62;72.78
64908;BME280;64365;-1.756;110.040;2023-02-28T01:54:45;103137.34;;;6.60;74.04
64908;BME280;64365;-1.756;110.040;2023-02-28T01:57:17;103131.00;;;6.61;74.40
64908;BME280;64365;-1.756;110.040;2023-02-28T01:59:48;103130.44;;;6.64;76.73
64908;BME280;64365;-1.756;110.040;2023-02-28T02:02:18;103126.13;;;6.73;76.69
64908;BME280;64365;-1.756;110.040;2023-02-28T02:04:51;103125.06;;;6.74;74.99
64908;BME280;64365;-1.756;110.040;2023-02-28T02:07:20;103132.16;;;6.79;75.58
64908;BME280;64365;-1.756;110.040;2023-02-28T02:09:46;103138.22;;;6.79;76.63
64908;BME280;64365;-1.756;110.040;2023-02-28T02:12:23;103128.22;;;6.76;70.80
64908;BME280;64365;-1.756;110.040;2023-02-28T02:15:00;103119.25;;;6.72;76.51
64908;BME280;64365;-1.756;110.040;2023-02-28T02:17:33;103111.09;;;6.68;77.01
64908;BME280;64365;-1.756;110.040;2023-02-28T02:20:36;103112.91;;;6.73;74.22
64908;BME280;64365;-1.756;110.040;2023-02-28T02:23:41;103104.16;;;6.48;70.50
64908;BME280;64365;-1.756;110.040;2023-02-28T02:26:33;103119.97;;;6.53;74.27
64908;BME280;64365;-1.756;110.040;2023-02-28T02:29:34;103121.53;;;6.54;76.48
64908;BME280;64365;-1.756;110.040;2023-02-28T02:34:56;103119.47;;;6.51;77.73
64908;BME280;64365;-1.756;110.040;2023-02-28T02:37:29;103121.03;;;6.52;75.33
64908;BME280;64365;-1.756;110.040;2023-02-28T02:40:03;103123.72;;;6.47;76.02
64908;BME280;64365;-1.756;110.040;2023-02-28T02:42:39;103114.22;;;6.46;75.42
64908;BME280;64365;-1.756;110.040;2023-02-28T02:45:10;103111.00;;;6.49;76.53
64908;BME280;64365;-1.756;110.040;2023-02-28T02:47:39;103111.53;;;6.51;77.26
64908;BME280;64365;-1.756;110.040;2023-02-28T02:50:13;103114.19;;;6.51;77.21
64908;BME280;64365;-1.756;110.040;2023-02-28T02:52:42;103128.03;;;6.38;77.33
64908;BME280;64365;-1.756;110.040;2023-02-28T02:55:13;103120.81;;;6.49;76.95
64908;BME280;64365;-1.756;110.040;2023-02-28T02:57:46;103124.78;;;6.46;72.65
64908;BME280;64365;-1.756;110.040;2023-02-28T03:00:15;103126.94;;;6.44;76.41
64908;BME280;64365;-1.756;110.040;2023-02-28T03:02:45;103118.16;;;6.49;77.52
64908;BME280;64365;-1.756;110.040;2023-02-28T03:05:19;103119.22;;;6.48;76.34
64908;BME280;64365;-1.756;110.040;2023-02-28T03:07:47;103126.38;;;6.47;75.80
64908;BME280;64365;-1.756;110.040;2023-02-28T03:10:33;103126.94;;;6.44;77.48
64908;BME280;64365;-1.756;110.040;2023-02-28T03:13:15;103119.78;;;6.45;76.43
64908;BME280;64365;-1.756;110.040;2023-02-28T03:15:54;103117.41;;;6.43;77.52
64908;BME280;64365;-1.756;110.040;2023-02-28T03:18:31;103114.19;;;6.51;78.44
64908;BME280;64365;-1.756;110.040;2023-02-28T03:21:06;103110.69;;;6.56;76.08
64908;BME280;64365;-1.756;110.040;2023-02-28T03:23:41;103107.75;;;6.57;77.20
64908;BME280;64365;-1.756;110.040;2023-02-28T03:26:13;103111.22;;;6.58;78.04
64908;BME280;64365;-1.756;110.040;2023-02-28T03:28:49;103108.53;;;6.63;77.69
64908;BME280;64365;-1.756;110.040;2023-02-28T03:31:22;103107.72;;;6.63;75.44
64908;BME280;64365;-1.756;110.040;2023-02-28T03:33:57;103114.09;;;6.62;73.56
64908;BME280;64365;-1.756;110.040;2023-02-28T03:36:29;103108.81;;;6.62;75.41
64908;BME280;64365;-1.756;110.040;2023-02-28T03:38:58;103103.56;;;6.56;76.99
64908;BME280;64365;-1.756;110.040;2023-02-28T03:41:30;103109.44;;;6.78;78.80
64908;BME280;64365;-1.756;110.040;2023-02-28T03:43:59;103118.38;;;6.82;74.76
64908;BME280;64365;-1.756;110.040;2023-02-28T03:46:31;103120.75;;;6.83;72.01
64908;BME280;64365;-1.756;110.040;2023-02-28T03:49:02;103116.84;;;6.76;72.20
64908;BME280;64365;-1.756;110.040;2023-02-28T03:51:33;103114.31;;;6.65;71.97
64908;BME280;64365;-1.756;110.040;2023-02-28T03:54:05;103115.16;;;6.61;71.32
64908;BME280;64365;-1.756;110.040;2023-02-28T03:56:38;103127.53;;;6.65;71.71
64908;BME280;64365;-1.756;110.040;2023-02-28T03:59:08;103124.09;;;6.65;70.96
64908;BME280;64365;-1.756;110.040;2023-02-28T04:01:41;103133.13;;;6.58;70.29
64908;BME280;64365;-1.756;110.040;2023-02-28T04:04:09;103107.34;;;6.45;71.13
64908;BME280;64365;-1.756;110.040;2023-02-28T04:06:39;103121.50;;;6.60;70.41
64908;BME280;64365;-1.756;110.040;2023-02-28T04:09:07;103120.19;;;6.57;71.81
64908;BME280;64365;-1.756;110.040;2023-02-28T04:11:36;103126.25;;;6.57;73.46
64908;BME280;64365;-1.756;110.040;2023-02-28T04:14:05;103128.41;;;6.55;73.78
64908;BME280;64365;-1.756;110.040;2023-02-28T04:16:34;103128.97;;;6.52;72.87
64908;BME280;64365;-1.756;110.040;2023-02-28T04:19:01;103132.34;;;6.58;74.44
64908;BME280;64365;-1.756;110.040;2023-02-28T04:21:30;103134.16;;;6.63;73.59
64908;BME280;64365;-1.756;110.040;2023-02-28T04:23:59;103138.38;;;6.64;73.88
64908;BME280;64365;-1.756;110.040;2023-02-28T04:26:27;103129.44;;;6.60;73.64
64908;BME280;64365;-1.756;110.040;2023-02-28T04:28:54;103120.97;;;6.57;72.89
64908;BME280;64365;-1.756;110.040;2023-02-28T04:31:20;103123.13;;;6.55;72.56
64908;BME280;64365;-1.756;110.040;2023-02-28T04:33:47;103081.31;;;6.33;72.84
64908;BME280;64365;-1.756;110.040;2023-02-28T04:36:14;103121.81;;;6.53;75.24
64908;BME280;64365;-1.756;110.040;2023-02-28T04:38:43;103135.00;;;6.58;73.85
64908;BME280;64365;-1.756;110.040;2023-02-28T04:41:11;103124.69;;;6.56;72.69
64908;BME280;64365;-1.756;110.040;2023-02-28T04:43:38;103123.44;;;6.49;72.72
64908;BME280;64365;-1.756;110.040;2023-02-28T04:46:05;103130.84;;;6.47;72.72
64908;BME280;64365;-1.756;110.040;2023-02-28T04:48:34;103131.41;;;6.44;74.65
64908;BME280;64365;-1.756;110.040;2023-02-28T04:51:01;103126.09;;;6.49;76.01
64908;BME280;64365;-1.756;110.040;2023-02-28T04:53:29;103126.53;;;6.56;75.48
64908;BME280;64365;-1.756;110.040;2023-02-28T04:55:56;103130.28;;;6.55;74.30
64908;BME280;64365;-1.756;110.040;2023-02-28T04:58:24;103112.22;;;6.62;77.59
64908;BME280;64365;-1.756;110.040;2023-02-28T05:00:51;103127.25;;;6.67;75.15
64908;BME280;64365;-1.756;110.040;2023-02-28T05:03:17;103116.50;;;6.58;73.75
64908;BME280;64365;-1.756;110.040;2023-02-28T05:05:44;103120.19;;;6.57;74.60
64908;BME280;64365;-1.756;110.040;2023-02-28T05:08:11;103124.75;;;6.51;72.85
64908;BME280;64365;-1.756;110.040;2023-02-28T05:10:37;103123.19;;;6.45;74.67
64908;BME280;64365;-1.756;110.040;2023-02-28T05:13:04;103129.59;;;6.39;74.89
64908;BME280;64365;-1.756;110.040;2023-02-28T05:15:32;103133.88;;;6.35;73.16
64908;BME280;64365;-1.756;110.040;2023-02-28T05:17:58;103128.81;;;6.04;72.36
64908;BME280;64365;-1.756;110.040;2023-02-28T05:20:25;103116.16;;;5.96;72.28
64908;BME280;64365;-1.756;110.040;2023-02-28T05:22:52;103122.78;;;5.88;70.64
64908;BME280;64365;-1.756;110.040;2023-02-28T05:25:20;103126.78;;;5.85;73.47
64908;BME280;64365;-1.756;110.040;2023-02-28T05:27:47;103122.22;;;5.96;72.12
64908;BME280;64365;-1.756;110.040;2023-02-28T05:30:14;103113.00;;;5.94;71.44
64908;BME280;64365;-1.756;110.040;2023-02-28T05:32:42;103136.75;;;5.94;69.85
64908;BME280;64365;-1.756;110.040;2023-02-28T05:35:10;103111.59;;;5.62;71.00
64908;BME280;64365;-1.756;110.040;2023-02-28T05:37:37;103131.59;;;5.73;70.04
64908;BME280;64365;-1.756;110.040;2023-02-28T05:40:07;103128.75;;;5.59;68.03
64908;BME280;64365;-1.756;110.040;2023-02-28T05:42:35;103134.34;;;5.52;67.25
64908;BME280;64365;-1.756;110.040;2023-02-28T05:45:02;103135.69;;;5.39;65.85
64908;BME280;64365;-1.756;110.040;2023-02-28T05:47:29;103128.88;;;5.28;65.27
64908;BME280;64365;-1.756;110.040;2023-02-28T05:49:57;103131.81;;;5.16;65.23
64908;BME280;64365;-1.756;110.040;2023-02-28T05:52:24;103141.81;;;5.19;66.35
64908;BME280;64365;-1.756;110.040;2023-02-28T05:54:50;103137.56;;;5.34;65.17
64908;BME280;64365;-1.756;110.040;2023-02-28T05:57:17;103132.84;;;5.31;65.54
64908;BME280;64365;-1.756;110.040;2023-02-28T05:59:43;103150.53;;;5.25;67.23
64908;BME280;64365;-1.756;110.040;2023-02-28T06:02:12;103148.47;;;5.01;63.98
64908;BME280;64365;-1.756;110.040;2023-02-28T06:04:39;103141.34;;;5.02;64.25
64908;BME280;64365;-1.756;110.040;2023-02-28T06:07:07;103138.47;;;4.93;64.65
64908;BME280;64365;-1.756;110.040;2023-02-28T06:09:34;103144.00;;;4.92;64.94
64908;BME280;64365;-1.756;110.040;2023-02-28T06:12:02;103147.41;;;4.97;65.94
64908;BME280;64365;-1.756;110.040;2023-02-28T06:14:31;103149.00;;;5.03;65.73
64908;BME280;64365;-1.756;110.040;2023-02-28T06:16:58;103147.16;;;4.94;64.84
64908;BME280;64365;-1.756;110.040;2023-02-28T06:19:25;103152.44;;;4.88;65.90
64908;BME280;64365;-1.756;110.040;2023-02-28T06:21:53;103161.41;;;4.93;66.63
64908;BME280;64365;-1.756;110.040;2023-02-28T06:24:22;103153.22;;;4.79;68.49
64908;BME280;64365;-1.756;110.040;2023-02-28T06:26:49;103150.31;;;4.80;68.17
64908;BME280;64365;-1.756;110.040;2023-02-28T06:29:16;103157.72;;;4.78;68.20
64908;BME280;64365;-1.756;110.040;2023-02-28T06:31:44;103150.88;;;4.62;70.25
64908;BME280;64365;-1.756;110.040;2023-02-28T06:34:11;103155.63;;;4.60;72.21
64908;BME280;64365;-1.756;110.040;2023-02-28T06:36:37;103147.22;;;4.63;72.08
64908;BME280;64365;-1.756;110.040;2023-02-28T06:39:04;103158.00;;;4.56;70.96
64908;BME280;64365;-1.756;110.040;2023-02-28T06:41:32;103164.56;;;4.38;74.54
64908;BME280;64365;-1.756;110.040;2023-02-28T06:44:03;103163.25;;;4.35;74.95
64908;BME280;64365;-1.756;110.040;2023-02-28T06:46:31;103171.41;;;4.39;75.12
64908;BME280;64365;-1.756;110.040;2023-02-28T06:48:58;103171.16;;;4.30;76.76
64908;BME280;64365;-1.756;110.040;2023-02-28T06:51:24;103169.28;;;4.26;76.57
64908;BME280;64365;-1.756;110.040;2023-02-28T06:53:52;103172.47;;;4.28;79.06
64908;BME280;64365;-1.756;110.040;2023-02-28T06:56:19;103171.41;;;4.34;77.89
64908;BME280;64365;-1.756;110.040;2023-02-28T06:58:47;103169.56;;;4.45;80.74
64908;BME280;64365;-1.756;110.040;2023-02-28T07:01:15;103167.22;;;4.53;78.94
64908;BME280;64365;-1.756;110.040;2023-02-28T07:03:41;103178.81;;;4.63;79.26
64908;BME280;64365;-1.756;110.040;2023-02-28T07:06:08;103176.69;;;4.54;79.10
64908;BME280;64365;-1.756;110.040;2023-02-28T07:08:35;103185.13;;;4.57;80.06
64908;BME280;64365;-1.756;110.040;2023-02-28T07:11:02;103185.41;;;4.60;81.70
64908;BME280;64365;-1.756;110.040;2023-02-28T07:13:29;103184.31;;;4.66;80.37
64908;BME280;64365;-1.756;110.040;2023-02-28T07:15:58;103181.16;;;4.69;82.96
64908;BME280;64365;-1.756;110.040;2023-02-28T07:18:25;103179.59;;;4.68;81.77
64908;BME280;64365;-1.756;110.040;2023-02-28T07:20:52;103186.44;;;4.85;81.06
64908;BME280;64365;-1.756;110.040;2023-02-28T07:23:19;103179.84;;;4.93;82.84
64908;BME280;64365;-1.756;110.040;2023-02-28T07:25:45;103182.19;;;5.04;82.34
64908;BME280;64365;-1.756;110.040;2023-02-28T07:28:13;103181.91;;;5.11;80.20
64908;BME280;64365;-1.756;110.040;2023-02-28T07:30:40;103184.31;;;5.08;79.50
64908;BME280;64365;-1.756;110.040;2023-02-28T07:33:08;103185.63;;;5.10;80.46
64908;BME280;64365;-1.756;110.040;2023-02-28T07:35:35;103176.91;;;5.10;80.79
64908;BME280;64365;-1.756;110.040;2023-02-28T07:38:02;103177.19;;;5.13;78.76
64908;BME280;64365;-1.756;110.040;2023-02-28T07:40:29;103178.22;;;5.12;79.24
64908;BME280;64365;-1.756;110.040;2023-02-28T07:42:55;103175.78;;;5.36;81.05
64908;BME280;64365;-1.756;110.040;2023-02-28T07:45:22;103162.59;;;5.36;79.94
64908;BME280;64365;-1.756;110.040;2023-02-28T07:47:48;103175.72;;;5.52;82.22
64908;BME280;64365;-1.756;110.040;2023-02-28T07:50:17;103175.16;;;5.65;79.17
64908;BME280;64365;-1.756;110.040;2023-02-28T07:52:44;103174.38;;;5.65;78.41
64908;BME280;64365;-1.756;110.040;2023-02-28T07:55:11;103170.69;;;5.61;79.07
64908;BME280;64365;-1.756;110.040;2023-02-28T07:57:39;103181.75;;;5.63;77.16
64908;BME280;64365;-1.756;110.040;2023-02-28T08:00:08;103173.63;;;5.54;77.92
64908;BME280;64365;-1.756;110.040;2023-02-28T08:02:35;103178.91;;;5.54;78.50
64908;BME280;64365;-1.756;110.040;2023-02-28T08:05:02;103170.16;;;5.59;81.41
64908;BME280;64365;-1.756;110.040;2023-02-28T08:07:30;103174.84;;;5.77;79.49
64908;BME280;64365;-1.756;110.040;2023-02-28T08:09:57;103174.84;;;5.72;76.45
64908;BME280;64365;-1.756;110.040;2023-02-28T08:12:24;103169.13;;;5.54;75.82
64908;BME280;64365;-1.756;110.040;2023-02-28T08:14:50;103183.41;;;5.53;75.94
64908;BME280;64365;-1.756;110.040;2023-02-28T08:17:17;103183.41;;;5.48;77.66
64908;BME280;64365;-1.756;110.040;2023-02-28T08:19:45;103184.19;;;5.44;76.72
64908;BME280;64365;-1.756;110.040;2023-02-28T08:22:11;103182.66;;;5.37;77.68
64908;BME280;64365;-1.756;110.040;2023-02-28T08:24:41;103186.34;;;5.42;79.16
64908;BME280;64365;-1.756;110.040;2023-02-28T08:27:08;103187.09;;;5.42;77.06
64908;BME280;64365;-1.756;110.040;2023-02-28T08:29:36;103195.03;;;5.42;75.78
64908;BME280;64365;-1.756;110.040;2023-02-28T08:32:03;103180.03;;;5.32;76.47
64908;BME280;64365;-1.756;110.040;2023-02-28T08:34:30;103187.66;;;5.29;76.96
64908;BME280;64365;-1.756;110.040;2023-02-28T08:36:56;103182.41;;;5.23;77.50
64908;BME280;64365;-1.756;110.040;2023-02-28T08:39:23;103195.59;;;5.29;76.88
64908;BME280;64365;-1.756;110.040;2023-02-28T08:41:51;103188.75;;;5.28;76.50
64908;BME280;64365;-1.756;110.040;2023-02-28T08:44:17;103193.50;;;5.26;76.69
64908;BME280;64365;-1.756;110.040;2023-02-28T08:46:44;103192.44;;;5.27;77.27
64908;BME280;64365;-1.756;110.040;2023-02-28T08:49:10;103193.22;;;5.32;78.11
64908;BME280;64365;-1.756;110.040;2023-02-28T08:51:38;103185.56;;;5.31;77.33
64908;BME280;64365;-1.756;110.040;2023-02-28T08:54:05;103188.69;;;5.48;79.61
64908;BME280;64365;-1.756;110.040;2023-02-28T08:56:32;103195.22;;;5.61;77.34
64908;BME280;64365;-1.756;110.040;2023-02-28T08:59:00;103190.19;;;5.65;78.36
64908;BME280;64365;-1.756;110.040;2023-02-28T09:01:28;103194.84;;;5.88;79.51
64908;BME280;64365;-1.756;110.040;2023-02-28T09:03:56;103184.50;;;6.02;77.70
64908;BME280;64365;-1.756;110.040;2023-02-28T09:06:23;103192.44;;;6.02;76.76
64908;BME280;64365;-1.756;110.040;2023-02-28T09:08:50;103192.16;;;5.94;78.14
64908;BME280;64365;-1.756;110.040;2023-02-28T09:11:18;103189.50;;;6.09;78.91
64908;BME280;64365;-1.756;110.040;2023-02-28T09:13:44;103199.41;;;6.28;78.41
64908;BME280;64365;-1.756;110.040;2023-02-28T09:16:14;103206.66;;;6.46;79.87
64908;BME280;64365;-1.756;110.040;2023-02-28T09:18:42;103209.72;;;6.64;77.27
64908;BME280;64365;-1.756;110.040;2023-02-28T09:21:12;103213.69;;;6.61;76.93
64908;BME280;64365;-1.756;110.040;2023-02-28T09:23:39;103210.25;;;6.66;76.68
64908;BME280;64365;-1.756;110.040;2023-02-28T09:26:06;103207.28;;;6.72;76.61
64908;BME280;64365;-1.756;110.040;2023-02-28T09:28:34;103208.75;;;6.84;75.26
64908;BME280;64365;-1.756;110.040;2023-02-28T09:31:00;103208.47;;;6.85;74.30
64908;BME280;64365;-1.756;110.040;2023-02-28T09:33:31;103204.25;;;6.84;75.39
64908;BME280;64365;-1.756;110.040;2023-02-28T09:36:00;103209.91;;;7.02;73.90
64908;BME280;64365;-1.756;110.040;2023-02-28T09:38:27;103201.97;;;7.02;72.60
64908;BME280;64365;-1.756;110.040;2023-02-28T09:40:56;103206.78;;;7.00;71.01
64908;BME280;64365;-1.756;110.040;2023-02-28T09:43:25;103214.19;;;6.98;69.04
64908;BME280;64365;-1.756;110.040;2023-02-28T09:45:56;103202.91;;;6.87;70.86
64908;BME280;64365;-1.756;110.040;2023-02-28T09:48:28;103214.28;;;6.87;68.34
64908;BME280;64365;-1.756;110.040;2023-02-28T09:51:02;103210.66;;;6.78;67.36
64908;BME280;64365;-1.756;110.040;2023-02-28T09:53:31;103216.47;;;6.75;67.25
64908;BME280;64365;-1.756;110.040;2023-02-28T09:56:02;103217.50;;;6.79;66.01
64908;BME280;64365;-1.756;110.040;2023-02-28T09:58:34;103209.22;;;6.91;68.07
64908;BME280;64365;-1.756;110.040;2023-02-28T10:01:06;103218.31;;;7.09;66.90
64908;BME280;64365;-1.756;110.040;2023-02-28T10:03:36;103210.19;;;7.30;68.80
64908;BME280;64365;-1.756;110.040;2023-02-28T10:06:12;103212.63;;;7.21;61.82
64908;BME280;64365;-1.756;110.040;2023-02-28T10:08:45;103222.34;;;7.01;61.28
64908;BME280;64365;-1.756;110.040;2023-02-28T10:11:16;103217.44;;;6.89;63.62
64908;BME280;64365;-1.756;110.040;2023-02-28T10:13:51;103211.38;;;6.89;63.91
64908;BME280;64365;-1.756;110.040;2023-02-28T10:16:25;103208.56;;;7.04;61.29
64908;BME280;64365;-1.756;110.040;2023-02-28T10:18:58;103217.09;;;6.96;62.92
64908;BME280;64365;-1.756;110.040;2023-02-28T10:21:30;103212.91;;;7.19;61.39
64908;BME280;64365;-1.756;110.040;2023-02-28T10:24:03;103214.41;;;7.31;61.09
64908;BME280;64365;-1.756;110.040;2023-02-28T10:26:32;103211.13;;;7.39;60.90
64908;BME280;64365;-1.756;110.040;2023-02-28T10:28:59;103206.81;;;7.48;60.80
64908;BME280;64365;-1.756;110.040;2023-02-28T10:31:27;103208.69;;;7.67;59.81
64908;BME280;64365;-1.756;110.040;2023-02-28T10:33:54;103197.56;;;7.70;60.02
64908;BME280;64365;-1.756;110.040;2023-02-28T10:36:21;103203.13;;;7.87;63.42
64908;BME280;64365;-1.756;110.040;2023-02-28T10:38:50;103199.88;;;7.96;57.67
64908;BME280;64365;-1.756;110.040;2023-02-28T10:41:27;103196.63;;;7.99;56.20
64908;BME280;64365;-1.756;110.040;2023-02-28T10:44:12;103189.09;;;8.06;55.05
64908;BME280;64365;-1.756;110.040;2023-02-28T10:46:40;103196.34;;;8.19;56.40
64908;BME280;64365;-1.756;110.040;2023-02-28T10:49:13;103193.31;;;8.26;52.03
64908;BME280;64365;-1.756;110.040;2023-02-28T10:51:41;103191.75;;;8.25;53.65
64908;BME280;64365;-1.756;110.040;2023-02-28T10:54:16;103181.00;;;8.35;52.48
64908;BME280;64365;-1.756;110.040;2023-02-28T10:56:44;103186.66;;;8.29;51.55
64908;BME280;64365;-1.756;110.040;2023-02-28T10:59:26;103186.97;;;8.46;51.43
64908;BME280;64365;-1.756;110.040;2023-02-28T11:01:54;103177.69;;;8.63;52.54
64908;BME280;64365;-1.756;110.040;2023-02-28T11:04:33;103176.34;;;8.79;46.36
64908;BME280;64365;-1.756;110.040;2023-02-28T11:07:03;103173.69;;;8.79;46.50
64908;BME280;64365;-1.756;110.040;2023-02-28T11:09:34;103177.22;;;8.88;49.11
64908;BME280;64365;-1.756;110.040;2023-02-28T11:12:02;103173.31;;;9.00;48.38
64908;BME280;64365;-1.756;110.040;2023-02-28T11:14:34;103171.16;;;9.16;47.15
64908;BME280;64365;-1.756;110.040;2023-02-28T11:17:13;103168.19;;;9.45;45.60
64908;BME280;64365;-1.756;110.040;2023-02-28T11:19:45;103157.34;;;9.69;45.69
64908;BME280;64365;-1.756;110.040;2023-02-28T11:22:18;103147.03;;;9.68;44.51
64908;BME280;64365;-1.756;110.040;2023-02-28T11:24:49;103153.81;;;9.97;45.71
64908;BME280;64365;-1.756;110.040;2023-02-28T11:27:25;103157.22;;;10.11;44.05
64908;BME280;64365;-1.756;110.040;2023-02-28T11:29:52;103152.97;;;10.33;44.20
64908;BME280;64365;-1.756;110.040;2023-02-28T11:32:20;103150.69;;;10.40;42.76
64908;BME280;64365;-1.756;110.040;2023-02-28T11:35:00;103160.13;;;10.23;42.50
64908;BME280;64365;-1.756;110.040;2023-02-28T11:37:28;103148.09;;;10.26;42.67
64908;BME280;64365;-1.756;110.040;2023-02-28T11:39:56;103138.97;;;10.18;42.65
64908;BME280;64365;-1.756;110.040;2023-02-28T11:42:45;103147.28;;;10.39;42.78
64908;BME280;64365;-1.756;110.040;2023-02-28T11:45:30;103144.03;;;10.51;38.67
64908;BME280;64365;-1.756;110.040;2023-02-28T11:48:06;103141.91;;;10.62;43.20
64908;BME280;64365;-1.756;110.040;2023-02-28T11:50:45;103137.59;;;10.75;39.60
64908;BME280;64365;-1.756;110.040;2023-02-28T11:53:22;103138.09;;;10.86;44.14
64908;BME280;64365;-1.756;110.040;2023-02-28T11:56:00;103146.28;;;10.98;43.22
64908;BME280;64365;-1.756;110.040;2023-02-28T11:58:36;103133.47;;;11.00;41.12
64908;BME280;64365;-1.756;110.040;2023-02-28T12:01:28;103132.06;;;11.03;38.22
64908;BME280;64365;-1.756;110.040;2023-02-28T12:04:04;103114.34;;;10.89;39.42
64908;BME280;64365;-1.756;110.040;2023-02-28T12:06:40;103120.13;;;10.91;39.59
64908;BME280;64365;-1.756;110.040;2023-02-28T12:09:18;103125.56;;;10.46;40.95
64908;BME280;64365;-1.756;110.040;2023-02-28T12:11:52;103127.50;;;10.54;38.10
64908;BME280;64365;-1.756;110.040;2023-02-28T12:14:36;103120.84;;;10.43;37.95
64908;BME280;64365;-1.756;110.040;2023-02-28T12:17:18;103115.78;;;10.33;40.34
64908;BME280;64365;-1.756;110.040;2023-02-28T12:19:56;103119.63;;;10.49;44.24
64908;BME280;64365;-1.756;110.040;2023-02-28T12:22:30;103122.59;;;10.79;42.09
64908;BME280;64365;-1.756;110.040;2023-02-28T12:28:00;103120.66;;;11.20;39.40
64908;BME280;64365;-1.756;110.040;2023-02-28T12:30:30;103117.72;;;11.30;40.33
64908;BME280;64365;-1.756;110.040;2023-02-28T12:33:02;103118.81;;;11.55;38.48
64908;BME280;64365;-1.756;110.040;2023-02-28T12:35:33;103108.63;;;11.66;38.16
64908;BME280;64365;-1.756;110.040;2023-02-28T12:38:05;103104.09;;;11.75;37.75
64908;BME280;64365;-1.756;110.040;2023-02-28T12:40:42;103102.06;;;11.63;35.15
64908;BME280;64365;-1.756;110.040;2023-02-28T12:43:14;103095.50;;;11.70;35.99
64908;BME280;64365;-1.756;110.040;2023-02-28T12:45:46;103094.06;;;11.72;36.85
64908;BME280;64365;-1.756;110.040;2023-02-28T12:48:18;103094.53;;;11.83;37.09
64908;BME280;64365;-1.756;110.040;2023-02-28T12:50:47;103089.97;;;11.92;36.39
64908;BME280;64365;-1.756;110.040;2023-02-28T12:53:18;103092.97;;;12.00;35.36
64908;BME280;64365;-1.756;110.040;2023-02-28T12:55:58;103101.09;;;12.12;35.86
64908;BME280;64365;-1.756;110.040;2023-02-28T12:58:34;103089.34;;;12.22;34.97
64908;BME280;64365;-1.756;110.040;2023-02-28T13:01:18;103099.19;;;12.21;33.33